Time;durP1;ratioP1;P1;durP2;ratioP2;P2;SDS_P1;SDS_P2;PMS_P1;PMS_P2;Temp;Humidity;BMP_temperature;BMP_pressure;BME280_temperature;BME280_humidity;BME280_pressure;Samples;Min_cycle;Max_cycle;Signal;HPM_P1;HPM_P2
2021/06/10 00:00:24;;;;;;;4.08;2.50;;;;;;;15.86;54.08;98455.03;1746945;80;28098;-88
2021/06/10 00:02:52;;;;;;;4.45;2.47;;;;;;;15.83;54.18;98447.38;1752721;80;28068;-84
2021/06/10 00:05:20;;;;;;;5.65;2.15;;;;;;;15.82;54.29;98443.90;1750414;80;28077;-85
2021/06/10 00:07:48;;;;;;;4.75;2.80;;;;;;;15.83;54.40;98448.21;1750255;80;28100;-85
2021/06/10 00:10:17;;;;;;;4.80;2.60;;;;;;;15.83;54.50;98445.57;1748075;80;28150;-85
2021/06/10 00:12:44;;;;;;;5.65;2.50;;;;;;;15.80;54.61;98448.50;1750806;79;27992;-84
2021/06/10 00:15:14;;;;;;;5.50;2.62;;;;;;;15.64;54.72;98447.39;1746133;80;28198;-85
2021/06/10 00:17:41;;;;;;;5.90;2.58;;;;;;;15.49;54.86;98453.02;1751145;80;28160;-85
2021/06/10 00:20:10;;;;;;;7.22;3.08;;;;;;;15.44;55.00;98449.97;1752590;80;28080;-84
2021/06/10 00:22:36;;;;;;;8.53;2.90;;;;;;;15.52;55.12;98451.96;1750162;80;28042;-84
2021/06/10 00:25:07;;;;;;;3.95;2.50;;;;;;;15.53;55.25;98455.44;1754533;80;28147;-84
2021/06/10 00:27:33;;;;;;;7.50;3.00;;;;;;;15.48;55.36;98454.02;1749199;80;28105;-84
2021/06/10 00:30:00;;;;;;;8.03;3.20;;;;;;;15.53;55.48;98449.68;1720002;82;28100;-84
2021/06/10 00:32:26;;;;;;;6.47;2.80;;;;;;;15.57;55.58;98448.91;1743695;81;28085;-84
2021/06/10 00:34:56;;;;;;;5.72;2.60;;;;;;;15.53;55.67;98451.48;1735972;81;28082;-85
2021/06/10 00:37:23;;;;;;;4.35;3.10;;;;;;;15.46;55.77;98453.80;1741785;81;28034;-85
2021/06/10 00:39:51;;;;;;;6.37;2.65;;;;;;;15.42;55.89;98453.24;1743628;81;28063;-85
2021/06/10 00:42:17;;;;;;;5.65;3.10;;;;;;;15.39;55.98;98452.19;1721295;81;28129;-85
2021/06/10 00:44:45;;;;;;;8.90;3.33;;;;;;;15.36;56.07;98451.16;1738407;81;28097;-88
2021/06/10 00:47:13;;;;;;;5.33;3.12;;;;;;;15.34;56.18;98450.44;1702615;81;28110;-88
2021/06/10 00:49:43;;;;;;;5.45;3.10;;;;;;;15.39;56.30;98448.23;1763901;80;28092;-85
2021/06/10 00:52:10;;;;;;;5.47;3.08;;;;;;;15.47;56.43;98449.70;1750734;80;28214;-85
2021/06/10 00:54:37;;;;;;;6.22;3.20;;;;;;;15.45;56.51;98446.84;1742524;80;28084;-84
2021/06/10 00:57:04;;;;;;;6.20;3.72;;;;;;;15.44;56.59;98446.02;1749008;80;28018;-84
2021/06/10 00:59:34;;;;;;;7.10;3.60;;;;;;;15.45;56.70;98441.09;1760541;80;28052;-84
2021/06/10 01:02:06;;;;;;;5.10;3.55;;;;;;;15.45;56.79;98447.69;1749451;80;28105;-84
2021/06/10 01:04:32;;;;;;;9.95;4.08;;;;;;;15.42;56.86;98446.66;1755647;80;28207;-84
2021/06/10 01:07:12;;;;;;;7.55;3.55;;;;;;;15.43;56.93;98447.48;1751860;80;28094;-85
2021/06/10 01:09:42;;;;;;;6.75;3.47;;;;;;;15.42;57.02;98445.81;1723968;80;28192;-84
2021/06/10 01:12:23;;;;;;;7.30;3.37;;;;;;;15.37;57.12;98442.28;1754288;80;28063;-84
2021/06/10 01:14:56;;;;;;;7.90;4.28;;;;;;;15.37;57.19;98446.23;1746159;80;28136;-84
2021/06/10 01:17:24;;;;;;;9.65;3.98;;;;;;;15.33;57.25;98444.81;1748587;80;28070;-84
2021/06/10 01:20:13;;;;;;;9.30;4.10;;;;;;;15.37;57.36;98438.80;1750564;80;28075;-84
2021/06/10 01:23:01;;;;;;;8.13;3.92;;;;;;;15.40;57.42;98443.30;1744743;80;28063;-84
2021/06/10 01:25:31;;;;;;;9.00;4.22;;;;;;;15.43;57.48;98440.41;1739094;81;28070;-84
2021/06/10 01:28:00;;;;;;;9.83;4.70;;;;;;;15.44;57.51;98443.86;1741888;80;28122;-84
2021/06/10 01:30:45;;;;;;;14.53;5.50;;;;;;;15.41;57.53;98442.83;1750164;80;28092;-84
2021/06/10 01:33:16;;;;;;;8.85;3.65;;;;;;;15.37;57.59;98442.28;1753349;80;28152;-84
2021/06/10 01:35:46;;;;;;;13.70;4.55;;;;;;;15.32;57.64;98443.66;1728775;82;28017;-84
2021/06/10 01:38:16;;;;;;;10.38;4.10;;;;;;;15.26;57.71;98446.83;1719006;80;28000;-83
2021/06/10 01:40:44;;;;;;;10.05;3.92;;;;;;;15.21;57.78;98439.82;1755150;80;28087;-84
2021/06/10 01:43:19;;;;;;;10.10;4.12;;;;;;;15.21;57.86;98439.34;1750756;80;28206;-84
2021/06/10 01:45:49;;;;;;;10.30;4.30;;;;;;;15.17;57.93;98439.23;1748877;80;28070;-87
2021/06/10 01:48:20;;;;;;;7.83;4.60;;;;;;;15.11;58.00;98443.73;1753043;80;28093;-87
2021/06/10 01:50:50;;;;;;;9.25;4.33;;;;;;;15.07;58.08;98447.61;1749458;80;28086;-87
2021/06/10 01:53:17;;;;;;;8.90;4.78;;;;;;;15.05;58.15;98443.78;1748767;80;28058;-87
2021/06/10 01:55:46;;;;;;;10.35;4.50;;;;;;;15.04;58.22;98447.89;1755241;80;28197;-87
2021/06/10 01:58:22;;;;;;;9.33;4.58;;;;;;;15.04;58.33;98446.09;1752568;80;28016;-87
2021/06/10 02:00:53;;;;;;;17.77;4.28;;;;;;;15.05;58.41;98450.38;1751074;80;28142;-87
2021/06/10 02:03:22;;;;;;;;;;;;;;;15.07;58.50;98441.86;1763823;80;26418;-87
2021/06/10 02:05:49;;;;;;;;;;;;;;;15.08;58.57;98443.53;1754569;80;20211;-87
2021/06/10 02:08:17;;;;;;;;;;;;;;;15.11;58.64;98446.36;1758021;80;24592;-88
2021/06/10 02:10:44;;;;;;;;;;;;;;;15.06;58.71;98448.57;1757611;80;21979;-87
2021/06/10 02:13:12;;;;;;;;;;;;;;;15.04;58.77;98440.83;1761288;80;25948;-87
2021/06/10 02:15:40;;;;;;;;;;;;;;;15.00;58.84;98439.91;1760961;80;24606;-87
2021/06/10 02:18:06;;;;;;;;;;;;;;;14.96;58.88;98441.97;1752846;80;20258;-87
2021/06/10 02:20:32;;;;;;;;;;;;;;;14.98;58.95;98440.52;1760605;80;24714;-87
2021/06/10 02:22:58;;;;;;;;;;;;;;;14.96;59.02;98440.64;1763658;80;20341;-87
2021/06/10 02:25:25;;;;;;;;;;;;;;;14.99;59.09;98435.61;1763862;80;26025;-87
2021/06/10 02:27:53;;;;;;;;;;;;;;;14.98;59.14;98431.30;1757708;80;24496;-87
2021/06/10 02:30:21;;;;;;;;;;;;;;;14.96;59.19;98437.17;1755456;80;20493;-85
2021/06/10 02:32:47;;;;;;;;;;;;;;;14.95;59.22;98434.19;1759163;80;24732;-84
2021/06/10 02:35:17;;;;;;;;;;;;;;;14.96;59.30;98435.86;1753857;80;21581;-84
2021/06/10 02:37:45;;;;;;;;;;;;;;;14.95;59.36;98433.70;1754569;80;26105;-85
2021/06/10 02:40:21;;;;;;;;;;;;;;;14.93;59.42;98434.34;1757356;80;24598;-88
2021/06/10 02:42:50;;;;;;;;;;;;;;;14.94;59.48;98440.45;1750559;80;20249;-87
2021/06/10 02:45:19;;;;;;;;;;;;;;;14.89;59.52;98437.38;1750807;80;26196;-87
2021/06/10 02:47:47;;;;;;;;;;;;;;;14.84;59.57;98436.44;1757208;80;22144;-87
2021/06/10 02:50:15;;;;;;;;;;;;;;;14.78;59.61;98438.80;1738942;80;25988;-87
2021/06/10 02:52:42;;;;;;;;;;;;;;;14.71;59.66;98438.97;1751338;80;25271;-87
2021/06/10 02:55:11;;;;;;;;;;;;;;;14.70;59.75;98442.09;1753340;80;20276;-87
2021/06/10 02:57:39;;;;;;;;;;;;;;;14.68;59.81;98437.42;1740722;80;24603;-87
2021/06/10 03:00:06;;;;;;;;;;;;;;;14.68;59.90;98441.38;1735321;82;21966;-87
2021/06/10 03:02:33;;;;;;;;;;;;;;;14.63;59.96;98442.25;1744785;80;25987;-86
2021/06/10 03:05:00;;;;;;;;;;;;;;;14.60;60.04;98438.10;1720466;82;25376;-87
2021/06/10 03:07:26;;;;;;;;;;;;;;;14.58;60.10;98437.39;1726215;82;20317;-87
2021/06/10 03:09:52;;;;;;;;;;;;;;;14.59;60.17;98440.86;1724963;81;24519;-87
2021/06/10 03:12:19;;;;;;;;;;;;;;;14.56;60.24;98436.67;1707806;82;22095;-87
2021/06/10 03:14:45;;;;;;;;;;;;;;;14.53;60.31;98436.11;1745812;81;26129;-87
2021/06/10 03:17:13;;;;;;;;;;;;;;;14.52;60.37;98436.59;1744987;81;25261;-87
2021/06/10 03:19:46;;;;;;;;;;;;;;;14.52;60.44;98441.86;1745503;81;20278;-87
2021/06/10 03:22:15;;;;;;;;;;;;;;;14.51;60.51;98448.60;1745942;81;25653;-87
2021/06/10 03:24:43;;;;;;;;;;;;;;;14.53;60.61;98461.97;1742487;82;21959;-87
2021/06/10 03:27:09;;;;;;;;;;;;;;;14.55;60.71;98454.78;1747505;80;26104;-87
2021/06/10 03:29:36;;;;;;;;;;;;;;;14.58;60.79;98463.73;1766931;80;24439;-87
2021/06/10 03:32:02;;;;;;;;;;;;;;;14.67;60.92;98462.60;1766919;80;20262;-87
2021/06/10 03:34:32;;;;;;;;;;;;;;;14.82;60.99;98462.59;1773496;80;24548;-87
2021/06/10 03:36:59;;;;;;;;;;;;;;;14.99;61.09;98460.64;1762751;80;22717;-87
2021/06/10 03:39:29;;;;;;;;;;;;;;;15.19;61.16;98461.03;1775283;80;26631;-87
2021/06/10 03:41:55;;;;;;;;;;;;;;;15.39;61.20;98462.73;1768637;80;24562;-87
2021/06/10 03:44:23;;;;;;;;;;;;;;;15.59;61.21;98462.80;1773576;80;20211;-87
2021/06/10 03:46:53;;;;;;;;;;;;;;;15.77;61.19;98461.96;1765879;80;24548;-88
2021/06/10 03:49:22;;;;;;;;;;;;;;;15.95;61.15;98463.91;1753806;79;21965;-87
2021/06/10 03:51:52;;;;;;;;;;;;;;;16.12;61.08;98465.36;1731648;81;26045;-87
2021/06/10 03:54:19;;;;;;;;;;;;;;;16.30;61.07;98475.55;1742754;81;25241;-87
2021/06/10 03:56:45;;;;;;;;;;;;;;;16.49;61.00;98472.02;1765538;80;20237;-87
2021/06/10 03:59:14;;;;;;;;;;;;;;;16.63;60.90;98468.13;1765472;80;25403;-87
2021/06/10 04:01:43;;;;;;;;;;;;;;;16.77;60.77;98470.77;1773030;80;22181;-88
2021/06/10 04:04:09;;;;;;;;;;;;;;;16.81;60.59;98470.82;1769913;80;26175;-87
2021/06/10 04:06:37;;;;;;;;;;;;;;;16.84;60.47;98470.55;1769267;80;24538;-87
2021/06/10 04:09:07;;;;;;;7.20;4.70;;;;;;;16.89;60.37;98470.45;1761025;80;20188;-85
2021/06/10 04:11:34;;;;;;;8.88;4.47;;;;;;;16.99;60.28;98470.41;1760356;80;28084;-85
2021/06/10 04:14:00;;;;;;;9.30;4.90;;;;;;;17.10;60.19;98468.89;1761714;80;28028;-85
2021/06/10 04:16:26;;;;;;;10.05;4.50;;;;;;;17.23;60.12;98471.20;1758750;80;28059;-87
2021/06/10 04:18:56;;;;;;;10.85;4.45;;;;;;;17.38;60.07;98465.25;1762898;80;28077;-87
2021/06/10 04:21:26;;;;;;;11.30;5.25;;;;;;;17.50;59.98;98469.84;1728876;81;28014;-86
2021/06/10 04:23:54;;;;;;;11.97;5.37;;;;;;;17.56;59.87;98469.25;1760984;80;28107;-86
2021/06/10 04:26:21;;;;;;;8.38;5.08;;;;;;;17.65;59.72;98474.15;1764691;80;28100;-84
2021/06/10 04:28:48;;;;;;;9.70;5.03;;;;;;;17.67;59.57;98473.52;1743257;80;28060;-84
2021/06/10 04:31:17;;;;;;;14.38;5.37;;;;;;;17.68;59.44;98481.78;1701362;82;28035;-87
2021/06/10 04:33:49;;;;;;;11.97;5.37;;;;;;;17.68;59.32;98481.78;1709473;82;28084;-87
2021/06/10 04:36:16;;;;;;;12.10;4.72;;;;;;;17.67;59.21;98477.00;1740996;81;28172;-88
2021/06/10 04:38:57;;;;;;;10.05;5.15;;;;;;;17.66;59.06;98479.30;1736422;81;28008;-89
2021/06/10 04:41:25;;;;;;;9.73;4.92;;;;;;;17.67;59.00;98478.81;1720819;80;28131;-89
2021/06/10 04:43:51;;;;;;;8.65;4.75;;;;;;;17.69;58.92;98481.63;1735985;81;28218;-84
2021/06/10 04:46:17;;;;;;;10.70;4.87;;;;;;;17.74;58.85;98482.02;1739623;81;28122;-85
2021/06/10 04:48:45;;;;;;;9.08;4.85;;;;;;;17.79;58.83;98482.39;1731438;80;28200;-85
2021/06/10 04:51:12;;;;;;;9.28;4.70;;;;;;;17.81;58.75;98486.22;1736300;81;28303;-85
2021/06/10 04:53:42;;;;;;;9.13;4.45;;;;;;;17.84;58.69;98489.38;1738156;81;28055;-87
2021/06/10 04:56:08;;;;;;;8.60;4.90;;;;;;;17.86;58.65;98481.30;1736435;81;28101;-88
2021/06/10 04:58:34;;;;;;;9.35;4.90;;;;;;;17.86;58.59;98487.43;1739083;80;28126;-88
2021/06/10 05:01:01;;;;;;;9.53;4.70;;;;;;;17.90;58.53;98484.81;1738412;81;28112;-87
2021/06/10 05:03:28;;;;;;;10.48;5.03;;;;;;;17.94;58.47;98479.58;1740058;81;28067;-87
2021/06/10 05:05:55;;;;;;;8.33;4.12;;;;;;;17.96;58.46;98478.91;1740465;81;28473;-87
2021/06/10 05:08:25;;;;;;;10.53;4.85;;;;;;;17.96;58.41;98480.72;1738198;81;28066;-87
2021/06/10 05:10:49;;;;;;;9.03;4.55;;;;;;;17.96;58.34;98484.70;1702481;82;28070;-87
2021/06/10 05:13:26;;;;;;;9.18;4.87;;;;;;;17.95;58.29;98487.83;1749402;80;28095;-87
2021/06/10 05:15:49;;;;;;;8.90;4.22;;;;;;;17.92;58.25;98484.18;1753824;80;28055;-87
2021/06/10 05:18:15;;;;;;;8.45;4.65;;;;;;;17.89;58.20;98484.47;1755043;80;28083;-87
2021/06/10 05:20:43;;;;;;;8.80;4.53;;;;;;;17.88;58.15;98483.31;1751524;80;28026;-87
2021/06/10 05:23:09;;;;;;;8.98;4.55;;;;;;;17.87;58.15;98474.53;1751057;80;28158;-87
2021/06/10 05:25:35;;;;;;;8.33;4.90;;;;;;;17.86;58.14;98472.87;1745612;80;28133;-85
2021/06/10 05:28:02;;;;;;;8.78;4.95;;;;;;;17.85;58.12;98474.33;1750129;80;28133;-85
2021/06/10 05:30:29;;;;;;;8.63;5.50;;;;;;;17.85;58.12;98480.95;1757000;80;28081;-85
2021/06/10 05:33:03;;;;;;;6.55;4.75;;;;;;;17.86;58.13;98484.78;1754322;80;28114;-85
2021/06/10 05:35:27;;;;;;;10.28;5.05;;;;;;;17.86;58.10;98478.66;1750708;80;28132;-85
2021/06/10 05:37:57;;;;;;;8.15;4.70;;;;;;;17.86;58.11;98482.63;1749894;80;28084;-85
2021/06/10 05:40:28;;;;;;;;;;;;;;;17.88;58.13;98480.67;1759384;80;28071;-85
2021/06/10 05:42:54;;;;;;;;;;;;;;;17.96;58.20;98485.53;1756657;80;26112;-85
2021/06/10 05:45:20;;;;;;;;;;;;;;;17.99;58.24;98483.08;1752749;80;103732;-87
2021/06/10 05:47:46;;;;;;;;;;;;;;;18.02;58.23;98481.93;1757263;80;20517;-88
2021/06/10 05:50:13;;;;;;;;;;;;;;;18.07;58.21;98488.44;1743020;79;20206;-89
2021/06/10 05:52:39;;;;;;;;;;;;;;;18.10;58.22;98480.20;1735723;81;22128;-86
2021/06/10 05:55:09;;;;;;;;;;;;;;;18.17;58.19;98475.09;1699736;81;25757;-87
2021/06/10 05:57:37;;;;;;;;;;;;;;;18.19;58.15;98471.81;1744645;80;25450;-87
2021/06/10 06:00:05;;;;;;;;;;;;;;;18.24;58.18;98476.98;1769184;80;20227;-87
2021/06/10 06:02:31;;;;;;;;;;;;;;;18.28;58.16;98473.52;1772092;80;24718;-87
2021/06/10 06:04:57;;;;;;;;;;;;;;;18.30;58.21;98476.86;1766600;80;20240;-87
2021/06/10 06:07:30;;;;;;;;;;;;;;;18.32;58.22;98477.06;1760713;80;21022;-88
2021/06/10 06:09:57;;;;;;;;;;;;;;;18.37;58.21;98477.42;1768223;80;25312;-87
2021/06/10 06:12:27;;;;;;;;;;;;;;;18.42;58.17;98472.98;1764315;80;20222;-87
2021/06/10 06:14:59;;;;;;;;;;;;;;;18.42;58.13;98473.47;1761394;80;25327;-87
2021/06/10 06:17:25;;;;;;;;;;;;;;;18.46;58.12;98473.49;1760413;80;22143;-87
2021/06/10 06:19:58;;;;;;;;;;;;;;;18.49;58.10;98475.36;1734492;80;21166;-88
2021/06/10 06:22:26;;;;;;;;;;;;;;;18.55;58.12;98472.08;1725655;81;24688;-88
2021/06/10 06:24:54;;;;;;;;;;;;;;;18.62;58.11;98474.45;1768286;80;20536;-88
2021/06/10 06:27:21;;;;;;;;;;;;;;;18.70;58.08;98477.66;1765499;80;25386;-87
2021/06/10 06:29:47;;;;;;;;;;;;;;;18.79;58.13;98476.70;1754444;80;22044;-87
2021/06/10 06:32:13;;;;;;;;;;;;;;;18.86;58.10;98479.56;1752711;80;26197;-87
2021/06/10 06:34:39;;;;;;;;;;;;;;;18.98;58.10;98480.47;1757433;80;24280;-87
2021/06/10 06:37:05;;;;;;;;;;;;;;;19.08;58.09;98482.98;1754163;80;20819;-87
2021/06/10 06:39:31;;;;;;;;;;;;;;;19.18;58.01;98482.36;1755233;80;24515;-87
2021/06/10 06:41:58;;;;;;;;;;;;;;;19.26;57.93;98481.05;1757274;80;21958;-87
2021/06/10 06:44:24;;;;;;;;;;;;;;;19.31;57.88;98483.25;1752795;80;26090;-87
2021/06/10 06:46:50;;;;;;;;;;;;;;;19.29;57.78;98476.77;1756002;80;20242;-87
2021/06/10 06:49:18;;;;;;;;;;;;;;;19.33;57.74;98484.73;1743395;80;20463;-87
2021/06/10 06:51:44;;;;;;;;;;;;;;;19.36;57.72;98477.80;1730591;81;24807;-87
2021/06/10 06:54:16;;;;;;;;;;;;;;;19.45;57.71;98478.66;1737046;81;22135;-87
2021/06/10 06:56:51;;;;;;;;;;;;;;;19.53;57.67;98480.83;1740941;81;26001;-87
2021/06/10 06:59:18;;;;;;;;;;;;;;;19.62;57.60;98485.68;1738015;81;24656;-88
2021/06/10 07:01:44;;;;;;;;;;;;;;;19.69;57.57;98485.38;1742754;81;20338;-88
2021/06/10 07:04:10;;;;;;;;;;;;;;;19.72;57.54;98481.05;1762321;80;20241;-87
2021/06/10 07:06:36;;;;;;;;;;;;;;;19.80;57.50;98478.91;1761425;80;21815;-87
2021/06/10 07:09:04;;;;;;;7.72;5.67;;;;;;;19.80;57.40;98483.70;1735826;80;43093;-85
2021/06/10 07:11:32;;;;;;;9.48;5.35;;;;;;;19.85;57.38;98479.25;1757927;80;28017;-85
2021/06/10 07:13:58;;;;;;;9.18;5.78;;;;;;;19.96;57.35;98483.75;1748440;80;28070;-85
2021/06/10 07:16:31;;;;;;;10.58;6.10;;;;;;;20.02;57.29;98484.87;1754069;80;28082;-85
2021/06/10 07:18:57;;;;;;;9.70;6.00;;;;;;;20.02;57.20;98484.87;1724953;81;28053;-89
2021/06/10 07:21:24;;;;;;;8.63;5.33;;;;;;;20.13;57.17;98485.88;1731933;81;28083;-89
2021/06/10 07:23:51;;;;;;;7.17;4.70;;;;;;;20.23;57.08;98489.23;1747778;80;28409;-89
2021/06/10 07:26:23;;;;;;;8.90;4.35;;;;;;;20.28;57.01;98492.22;1746729;80;28150;-88
2021/06/10 07:28:50;;;;;;;6.65;4.65;;;;;;;20.31;56.87;98494.56;1745335;80;28039;-87
2021/06/10 07:31:18;;;;;;;6.58;4.80;;;;;;;20.24;56.61;98492.19;1742247;81;28101;-87
2021/06/10 07:33:44;;;;;;;8.70;4.75;;;;;;;20.21;56.44;98493.88;1737779;81;28155;-85
2021/06/10 07:36:10;;;;;;;9.30;4.72;;;;;;;20.32;56.43;98497.55;1740692;81;28102;-85
2021/06/10 07:38:37;;;;;;;8.28;4.87;;;;;;;20.46;56.41;98494.20;1736228;81;28092;-85
2021/06/10 07:41:03;;;;;;;6.35;4.40;;;;;;;20.61;56.40;98493.54;1740246;81;28131;-85
2021/06/10 07:43:34;;;;;;;8.00;4.47;;;;;;;20.70;56.33;98496.01;1740005;81;28026;-85
2021/06/10 07:46:07;;;;;;;9.73;5.10;;;;;;;20.82;56.26;98501.31;1735441;81;28088;-85
2021/06/10 07:48:33;;;;;;;8.70;4.90;;;;;;;20.87;56.08;98500.80;1740465;81;28082;-85
2021/06/10 07:51:04;;;;;;;5.10;4.25;;;;;;;20.91;55.91;98497.28;1741208;81;28104;-85
2021/06/10 07:53:36;;;;;;;8.03;4.45;;;;;;;20.88;55.71;98497.97;1741156;81;28071;-85
2021/06/10 07:56:04;;;;;;;9.00;4.10;;;;;;;20.94;55.61;98494.30;1708472;82;28098;-85
2021/06/10 07:58:32;;;;;;;9.73;3.80;;;;;;;21.09;55.66;98488.58;1703658;82;28232;-85
2021/06/10 08:00:59;;;;;;;5.87;4.20;;;;;;;21.22;55.60;98495.56;1718009;81;28088;-84
2021/06/10 08:03:25;;;;;;;10.90;4.50;;;;;;;21.28;55.39;98497.00;1719476;81;28152;-87
2021/06/10 08:05:57;;;;;;;7.05;4.00;;;;;;;21.32;55.16;98497.51;1724551;81;28094;-87
2021/06/10 08:08:24;;;;;;;8.50;4.95;;;;;;;21.37;54.98;98495.66;1729567;81;28080;-87
2021/06/10 08:10:51;;;;;;;5.55;4.30;;;;;;;21.44;54.83;98495.30;1723591;81;28073;-89
2021/06/10 08:13:18;;;;;;;;;;;;;;;21.58;54.75;98495.88;1732143;81;24436;-88
2021/06/10 08:15:50;;;;;;;;;;;;;;;21.72;54.73;98493.78;1730746;82;20153;-88
2021/06/10 08:18:22;;;;;;;;;;;;;;;21.77;54.59;98501.23;1745218;81;25335;-88
2021/06/10 08:20:48;;;;;;;;;;;;;;;21.87;54.46;98501.36;1743057;81;22756;-88
2021/06/10 08:23:18;;;;;;;;;;;;;;;21.96;54.20;98500.82;1745024;81;21064;-88
2021/06/10 08:25:44;;;;;;;;;;;;;;;22.08;54.01;98502.08;1728331;82;24526;-88
2021/06/10 08:28:16;;;;;;;;;;;;;;;22.08;53.55;98498.91;1707710;82;20294;-88
2021/06/10 08:30:42;;;;;;;;;;;;;;;22.01;53.11;98498.45;1762397;80;24566;-88
2021/06/10 08:33:09;;;;;;;;;;;;;;;21.96;52.81;98497.66;1762628;80;22029;-88
2021/06/10 08:35:35;;;;;;;;;;;;;;;21.95;52.57;98498.66;1762364;80;20936;-88
2021/06/10 08:38:03;;;;;;;;;;;;;;;22.07;52.52;98501.73;1767031;80;24476;-88
2021/06/10 08:40:29;;;;;;;;;;;;;;;22.22;52.38;98498.62;1764511;80;20223;-88
2021/06/10 08:42:55;;;;;;;;;;;;;;;22.31;52.13;98502.06;1764650;80;24535;-88
2021/06/10 08:45:28;;;;;;;;;;;;;;;22.36;51.88;98502.34;1762782;80;20246;-88
2021/06/10 08:47:58;;;;;;;;;;;;;;;22.42;51.70;98504.30;1768643;80;26008;-88
2021/06/10 08:50:27;;;;;;;;;;;;;;;22.55;51.59;98505.83;1768960;80;24481;-88
2021/06/10 08:52:55;;;;;;;;;;;;;;;22.72;51.54;98505.20;1766738;80;20376;-88
2021/06/10 08:55:22;;;;;;;;;;;;;;;22.74;51.23;98508.52;1767723;80;24628;-88
2021/06/10 08:57:49;;;;;;;;;;;;;;;22.67;50.72;98503.05;1768331;80;22126;-88
2021/06/10 09:00:15;;;;;;;;;;;;;;;22.73;50.54;98509.53;1766669;80;26229;-88
2021/06/10 09:02:40;;;;;;;;;;;;;;;22.86;50.45;98505.20;1763659;80;24505;-88
2021/06/10 09:05:08;;;;;;;;;;;;;;;22.92;50.17;98506.31;1754570;79;20754;-88
2021/06/10 09:07:35;;;;;;;;;;;;;;;22.96;49.93;98505.45;1757492;80;24533;-88
2021/06/10 09:10:02;;;;;;;;;;;;;;;22.99;49.54;98510.42;1748106;80;21914;-88
2021/06/10 09:12:30;;;;;;;;;;;;;;;23.03;49.29;98503.69;1726182;81;25449;-88
2021/06/10 09:15:05;;;;;;;;;;;;;;;23.08;48.96;98503.45;1761811;80;25299;-88
2021/06/10 09:17:39;;;;;;;;;;;;;;;23.25;48.89;98497.42;1763672;80;20256;-88
2021/06/10 09:20:27;;;;;;;;;;;;;;;23.35;48.68;98497.45;1762514;80;25501;-88
2021/06/10 09:22:54;;;;;;;;;;;;;;;23.31;48.50;98486.83;1767049;80;22215;-88
2021/06/10 09:25:22;;;;;;;;;;;;;;;23.46;48.53;98486.83;1758935;80;26202;-87
2021/06/10 09:28:02;;;;;;;;;;;;;;;23.52;48.40;98502.11;1766709;80;25265;-87
2021/06/10 09:30:35;;;;;;;;;;;;;;;23.59;48.03;98498.18;1754371;80;20152;-88
2021/06/10 09:33:05;;;;;;;;;;;;;;;23.67;47.75;98492.23;1743655;81;24611;-87
2021/06/10 09:35:33;;;;;;;;;;;;;;;23.83;47.60;98493.01;1742797;81;22006;-88
2021/06/10 09:38:00;;;;;;;;;;;;;;;23.96;47.41;98498.47;1702774;82;25986;-87
2021/06/10 09:40:28;;;;;;;;;;;;;;;24.00;47.16;98495.77;1724974;81;24618;-88
2021/06/10 09:42:57;;;;;;;;;;;;;;;24.05;47.09;98496.84;1729593;82;20326;-88
2021/06/10 09:45:27;;;;;;;;;;;;;;;24.04;46.89;98499.70;1740753;81;24565;-88
2021/06/10 09:48:01;;;;;;;;;;;;;;;24.03;46.71;98500.71;1722607;82;22076;-88
2021/06/10 09:50:30;;;;;;;;;;;;;;;24.01;46.45;98504.91;1744454;81;26159;-89
2021/06/10 09:52:59;;;;;;;;;;;;;;;23.91;46.21;98503.56;1724562;81;25147;-87
2021/06/10 09:55:30;;;;;;;;;;;;;;;23.92;46.09;98499.87;1744555;80;20671;-88
2021/06/10 09:58:07;;;;;;;;;;;;;;;23.94;45.93;98499.19;1743386;81;24603;-87
2021/06/10 10:00:37;;;;;;;;;;;;;;;24.06;45.79;98501.15;1744903;81;22787;-88
2021/06/10 10:03:03;;;;;;;;;;;;;;;24.22;45.60;98497.41;1745022;81;25994;-88
2021/06/10 10:05:38;;;;;;;;;;;;;;;24.44;45.61;98496.88;1710551;82;20262;-88
2021/06/10 10:08:06;;;;;;;;;;;;;;;24.61;45.41;98503.61;1756792;80;20232;-88
2021/06/10 10:10:32;;;;;;;;;;;;;;;24.71;45.20;98500.08;1758256;80;20234;-88
2021/06/10 10:12:59;;;;;;;;;;;;;;;24.65;44.95;98502.22;1757031;80;21376;-87
2021/06/10 10:15:28;;;;;;;;;;;;;;;24.58;44.76;98502.16;1758264;80;26236;-87
2021/06/10 10:17:55;;;;;;;;;;;;;;;24.39;44.39;98498.80;1755593;80;24485;-88
2021/06/10 10:20:21;;;;;;;;;;;;;;;24.31;44.08;98502.14;1761559;80;20283;-88
2021/06/10 10:22:47;;;;;;;;;;;;;;;24.39;44.17;98497.47;1753484;80;20270;-88
2021/06/10 10:25:13;;;;;;;;;;;;;;;24.54;44.22;98495.55;1761793;80;22060;-87
2021/06/10 10:27:39;;;;;;;;;;;;;;;24.64;44.23;98495.72;1760193;80;25969;-87
2021/06/10 10:30:12;;;;;;;;;;;;;;;24.81;44.19;98493.06;1757957;80;20361;-87
2021/06/10 10:32:39;;;;;;;;;;;;;;;24.87;44.09;98497.63;1751978;81;20489;-88
2021/06/10 10:35:26;;;;;;;;;;;;;;;24.89;43.90;98487.06;1745846;81;24081;-88
2021/06/10 10:37:53;;;;;;;;;;;;;;;24.91;43.70;98489.03;1745213;81;22063;-88
2021/06/10 10:40:21;;;;;;;;;;;;;;;24.88;43.50;98484.56;1747431;81;27019;-87
2021/06/10 10:42:47;;;;;;;;;;;;;;;24.85;43.35;98483.09;1740692;81;24475;-87
2021/06/10 10:45:15;;;;;;;;;;;;;;;24.72;43.08;98478.98;1740370;81;20351;-88
2021/06/10 10:47:43;;;;;;;;;;;;;;;24.57;42.76;98478.27;1752731;81;25355;-88
2021/06/10 10:50:19;;;;;;;;;;;;;;;24.51;42.70;98464.33;1725931;81;22090;-88
2021/06/10 10:52:53;;;;;;;;;;;;;;;24.33;42.22;98463.45;1757590;81;25418;-87
2021/06/10 10:55:28;;;;;;;;;;;;;;;24.33;42.09;98460.78;1746797;81;24510;-88
2021/06/10 10:58:07;;;;;;;;;;;;;;;24.40;41.96;98464.86;1752386;81;20244;-88
2021/06/10 11:00:47;;;;;;;;;;;;;;;24.63;42.08;98456.59;1754558;81;25255;-87
2021/06/10 11:03:21;;;;;;;;;;;;;;;24.71;41.74;98454.57;1752982;81;22062;-87
2021/06/10 11:05:47;;;;;;;;;;;;;;;24.64;41.50;98447.54;1752914;81;26101;-87
2021/06/10 11:08:13;;;;;;;;;;;;;;;24.63;41.41;98448.55;1753976;81;24421;-88
2021/06/10 11:10:49;;;;;;;;;;;;;;;24.60;41.09;98454.60;1724467;81;20270;-87
2021/06/10 11:13:14;;;;;;;;;;;;;;;24.62;40.90;98445.56;1744004;81;24063;-87
2021/06/10 11:15:46;;;;;;;;;;;;;;;24.75;40.86;98434.44;1756275;80;21936;-88
2021/06/10 11:18:13;;;;;;;;;;;;;;;24.84;40.72;98437.27;1750900;81;25956;-88
2021/06/10 11:20:40;;;;;;;;;;;;;;;24.91;40.53;98436.83;1757787;81;24587;-89
2021/06/10 11:23:27;;;;;;;;;;;;;;;24.93;40.40;98425.89;1752019;81;20260;-89
2021/06/10 11:25:53;;;;;;;;;;;;;;;24.92;40.09;98424.27;1754613;81;128585;-90
2021/06/10 11:28:21;;;;;;;;;;;;;;;24.78;39.76;98426.52;1759362;80;22065;-90
2021/06/10 11:31:15;;;;;;;3.40;1.72;;;;;;;24.72;39.54;98428.63;1744532;81;26068;-89
2021/06/10 11:33:41;;;;;;;;;;;;;;;24.64;39.46;98428.80;1750576;81;28023;-89
2021/06/10 11:36:09;;;;;;;;;;;;;;;24.47;39.36;98429.11;1705267;81;20317;-90
2021/06/10 11:38:40;;;;;;;;;;;;;;;24.50;39.47;98428.70;1746695;81;24692;-89
2021/06/10 11:41:16;;;;;;;;;;;;;;;24.58;39.45;98424.55;1749259;81;20173;-89
2021/06/10 11:43:44;;;;;;;;;;;;;;;24.68;39.26;98424.70;1746761;81;25472;-89
2021/06/10 11:46:12;;;;;;;;;;;;;;;24.82;39.35;98419.22;1749490;81;24017;-90
2021/06/10 11:48:44;;;;;;;;;;;;;;;24.99;39.45;98417.07;1712412;81;20175;-89
2021/06/10 11:51:20;;;;;;;;;;;;;;;25.12;39.37;98414.47;1760021;80;24595;-89
2021/06/10 11:53:47;;;;;;;;;;;;;;;25.10;39.03;98422.38;1757928;81;22008;-89
2021/06/10 11:56:13;;;;;;;;;;;;;;;25.04;38.79;98410.60;1749028;80;25936;-89
2021/06/10 11:58:39;;;;;;;;;;;;;;;24.97;38.55;98417.80;1754090;81;24496;-90
2021/06/10 12:01:14;;;;;;;;;;;;;;;24.96;38.38;98408.11;1752247;81;20471;-89
2021/06/10 12:03:41;;;;;;;;;;;;;;;25.12;38.45;98414.97;1753018;80;24617;-90
2021/06/10 12:06:09;;;;;;;;;;;;;;;25.23;38.30;98415.73;1749517;81;22210;-89
2021/06/10 12:08:36;;;;;;;;;;;;;;;25.25;38.18;98416.37;1750868;81;26834;-89
2021/06/10 12:11:06;;;;;;;;;;;;;;;25.13;37.94;98432.19;1749886;81;24499;-89
2021/06/10 12:13:37;;;;;;;;;;;;;;;24.87;37.99;98450.27;1752857;80;20200;-90
2021/06/10 12:16:07;;;;;;;;;;;;;;;24.22;38.14;98455.16;1750730;81;24440;-90
2021/06/10 12:18:37;;;;;;;;;;;;;;;23.76;38.38;98463.53;1756457;81;22187;-89
2021/06/10 12:21:05;;;;;;;;;;;;;;;23.33;38.47;98474.63;1750831;81;25995;-89
2021/06/10 12:23:37;;;;;;;;;;;;;;;23.06;38.63;98480.14;1754978;81;25364;-90